createdAt,value
2022-09-25T00:00:53.029Z,4.23
2022-09-25T00:03:20.761Z,3.40
2022-09-25T00:05:47.780Z,3.63
2022-09-25T00:08:16.060Z,3.83
2022-09-25T00:10:44.674Z,3.20
2022-09-25T00:13:11.406Z,3.70
2022-09-25T00:15:38.417Z,2.95
2022-09-25T00:18:05.013Z,2.93
2022-09-25T00:20:31.487Z,2.40
2022-09-25T00:22:58.108Z,2.70
2022-09-25T00:25:27.302Z,2.93
2022-09-25T00:27:54.943Z,2.17
2022-09-25T00:30:21.611Z,2.20
2022-09-25T00:32:47.990Z,2.10
2022-09-25T00:35:14.379Z,2.60
2022-09-25T00:37:40.814Z,2.80
2022-09-25T00:40:08.030Z,2.63
2022-09-25T00:42:36.331Z,2.70
2022-09-25T00:45:21.929Z,3.20
2022-09-25T00:48:01.064Z,3.33
2022-09-25T00:50:38.823Z,2.80
2022-09-25T00:53:14.856Z,2.43
2022-09-25T00:55:44.209Z,2.90
2022-09-25T00:58:14.141Z,2.40
2022-09-25T01:00:41.390Z,2.70
2022-09-25T01:03:08.821Z,2.50
2022-09-25T01:05:38.995Z,2.70
2022-09-25T01:08:08.353Z,2.80
2022-09-25T01:10:36.251Z,2.70
2022-09-25T01:13:03.905Z,2.60
2022-09-25T01:15:47.682Z,2.40
2022-09-25T01:18:42.987Z,2.23
2022-09-25T01:21:43.094Z,2.37
2022-09-25T01:24:18.969Z,2.67
2022-09-25T01:27:17.005Z,2.17
2022-09-25T01:30:01.820Z,2.87
2022-09-25T01:33:10.070Z,2.30
2022-09-25T01:35:42.490Z,2.87
2022-09-25T01:38:24.077Z,2.70
2022-09-25T01:40:58.743Z,2.90
2022-09-25T01:43:34.001Z,2.70
2022-09-25T01:46:04.182Z,2.90
2022-09-25T01:48:33.691Z,2.77
2022-09-25T01:51:05.372Z,3.00
2022-09-25T01:53:39.247Z,2.60
2022-09-25T01:56:16.115Z,2.90
2022-09-25T01:58:55.417Z,2.80
2022-09-25T02:01:27.277Z,2.93
2022-09-25T02:03:58.864Z,2.53
2022-09-25T02:06:25.859Z,2.80
2022-09-25T02:09:19.266Z,2.33
2022-09-25T02:11:50.793Z,2.87
2022-09-25T02:14:26.842Z,2.80
2022-09-25T02:16:56.487Z,2.67
2022-09-25T02:19:42.636Z,2.80
2022-09-25T02:22:20.023Z,2.43
2022-09-25T02:24:59.170Z,2.57
2022-09-25T02:27:27.516Z,2.53
2022-09-25T02:29:55.675Z,2.60
2022-09-25T02:32:28.713Z,2.77
2022-09-25T02:34:56.886Z,2.80
2022-09-25T02:37:23.906Z,2.40
2022-09-25T02:39:54.548Z,2.47
2022-09-25T02:42:48.269Z,2.33
2022-09-25T02:45:14.653Z,3.13
2022-09-25T02:48:24.594Z,2.60
2022-09-25T02:51:12.155Z,3.03
2022-09-25T02:53:43.545Z,3.10
2022-09-25T02:56:36.169Z,2.83
2022-09-25T02:59:08.842Z,3.10
2022-09-25T03:01:39.769Z,3.13
2022-09-25T03:04:07.119Z,3.50
2022-09-25T03:06:33.721Z,3.40
2022-09-25T03:09:02.053Z,2.93
2022-09-25T03:11:28.620Z,3.00
2022-09-25T03:14:03.977Z,3.10
2022-09-25T03:16:35.084Z,3.07
2022-09-25T03:19:02.705Z,3.20
2022-09-25T03:21:29.322Z,3.00
2022-09-25T03:23:56.951Z,3.40
2022-09-25T03:26:24.977Z,3.47
2022-09-25T03:28:52.562Z,3.20
2022-09-25T03:31:19.501Z,3.20
2022-09-25T03:33:46.701Z,3.60
2022-09-25T03:36:21.635Z,3.43
2022-09-25T03:38:50.540Z,3.87
2022-09-25T03:41:21.327Z,2.90
2022-09-25T03:43:51.251Z,3.20
2022-09-25T03:46:21.270Z,3.07
2022-09-25T03:48:47.976Z,3.00
2022-09-25T03:51:14.748Z,2.80
2022-09-25T03:53:41.207Z,2.77
2022-09-25T03:56:11.981Z,3.30
2022-09-25T03:58:38.783Z,2.60
2022-09-25T04:01:06.191Z,2.90
2022-09-25T04:03:34.031Z,3.00
2022-09-25T04:06:04.806Z,3.03
2022-09-25T04:08:33.007Z,2.73
2022-09-25T04:11:00.085Z,2.93
2022-09-25T04:13:31.794Z,3.03
2022-09-25T04:16:00.961Z,3.23
2022-09-25T04:18:31.656Z,2.87
2022-09-25T04:21:04.097Z,3.20
2022-09-25T04:23:31.243Z,3.77
2022-09-25T04:25:58.065Z,3.40
2022-09-25T04:28:25.598Z,3.50
2022-09-25T04:30:52.210Z,3.87
2022-09-25T04:33:37.306Z,3.83
2022-09-25T04:36:05.008Z,3.87
2022-09-25T04:38:32.450Z,3.77
2022-09-25T04:41:02.864Z,4.00
2022-09-25T04:43:30.509Z,4.00
2022-09-25T04:46:04.792Z,4.23
2022-09-25T04:48:32.257Z,4.13
2022-09-25T04:50:59.006Z,3.73
2022-09-25T04:53:27.203Z,4.00
2022-09-25T04:55:55.140Z,4.17
2022-09-25T04:58:21.927Z,4.37
2022-09-25T05:00:49.210Z,4.00
2022-09-25T05:03:15.802Z,3.80
2022-09-25T05:05:42.522Z,3.80
2022-09-25T05:08:09.659Z,3.73
2022-09-25T05:10:36.090Z,4.30
2022-09-25T05:13:04.274Z,3.77
2022-09-25T05:15:32.563Z,4.10
2022-09-25T05:18:00.557Z,4.20
2022-09-25T05:20:27.169Z,3.47
2022-09-25T05:22:57.783Z,3.60
2022-09-25T05:25:25.363Z,3.80
2022-09-25T05:27:55.795Z,3.70
2022-09-25T05:30:22.886Z,3.77
2022-09-25T05:32:50.150Z,3.53
2022-09-25T05:35:18.987Z,3.93
2022-09-25T05:37:45.877Z,3.87
2022-09-25T05:40:12.765Z,4.20
2022-09-25T05:42:39.551Z,3.70
2022-09-25T05:45:07.712Z,4.03
2022-09-25T05:47:34.187Z,4.50
2022-09-25T05:50:00.622Z,4.60
2022-09-25T05:52:26.985Z,4.53
2022-09-25T05:54:53.487Z,4.43
2022-09-25T05:57:19.881Z,4.80
2022-09-25T05:59:46.310Z,3.90
2022-09-25T06:02:14.815Z,4.20
2022-09-25T06:04:41.347Z,4.50
2022-09-25T06:07:09.930Z,4.60
2022-09-25T06:09:36.403Z,4.77
2022-09-25T06:12:03.210Z,5.13
2022-09-25T06:14:30.360Z,4.90
2022-09-25T06:16:57.719Z,4.37
2022-09-25T06:19:24.280Z,4.43
2022-09-25T06:21:50.727Z,4.20
2022-09-25T06:24:17.073Z,4.27
2022-09-25T06:26:43.501Z,4.37
2022-09-25T06:29:09.916Z,4.60
2022-09-25T06:31:37.776Z,4.87
2022-09-25T06:34:04.360Z,4.70
2022-09-25T06:36:31.418Z,5.07
2022-09-25T06:38:57.990Z,5.13
2022-09-25T06:41:24.644Z,5.10
2022-09-25T06:43:52.020Z,5.43
2022-09-25T06:46:20.553Z,5.23
2022-09-25T06:48:54.444Z,5.13
2022-09-25T06:51:22.590Z,5.40
2022-09-25T06:53:53.130Z,9.33
2022-09-25T06:56:20.287Z,6.87
2022-09-25T06:58:46.762Z,5.03
2022-09-25T07:01:13.737Z,4.80
2022-09-25T07:03:47.117Z,4.53
2022-09-25T07:06:22.163Z,5.03
2022-09-25T07:08:50.254Z,5.03
2022-09-25T07:11:21.869Z,4.50
2022-09-25T07:13:51.204Z,4.67
2022-09-25T07:16:19.950Z,4.60
2022-09-25T07:18:46.840Z,4.27
2022-09-25T07:21:18.454Z,4.07
2022-09-25T07:23:48.669Z,4.17
2022-09-25T07:26:23.593Z,3.57
2022-09-25T07:28:59.041Z,3.77
2022-09-25T07:31:28.349Z,3.90
2022-09-25T07:33:57.110Z,4.70
2022-09-25T07:36:23.549Z,3.70
2022-09-25T07:38:51.227Z,3.40
2022-09-25T07:41:19.622Z,4.23
2022-09-25T07:43:46.056Z,4.43
2022-09-25T07:46:13.117Z,4.00
2022-09-25T07:48:39.791Z,3.60
2022-09-25T07:51:10.753Z,3.70
2022-09-25T07:53:38.333Z,3.70
2022-09-25T07:56:06.850Z,3.47
2022-09-25T07:58:38.830Z,3.00
2022-09-25T08:01:07.904Z,3.17
2022-09-25T08:03:34.635Z,3.20
2022-09-25T08:06:03.989Z,3.00
2022-09-25T08:08:30.999Z,2.87
2022-09-25T08:11:02.571Z,3.40
2022-09-25T08:13:32.066Z,2.90
2022-09-25T08:15:58.629Z,3.03
2022-09-25T08:18:25.079Z,3.23
2022-09-25T08:20:52.373Z,2.70
2022-09-25T08:23:18.799Z,3.08
2022-09-25T08:25:49.238Z,2.83
2022-09-25T08:28:16.043Z,2.50
2022-09-25T08:30:43.776Z,2.67
2022-09-25T08:33:15.765Z,2.70
2022-09-25T08:35:43.370Z,2.70
2022-09-25T08:38:13.837Z,2.83
2022-09-25T08:40:54.719Z,2.87
2022-09-25T08:43:23.254Z,2.70
2022-09-25T08:46:08.975Z,2.93
2022-09-25T08:49:02.194Z,2.23
2022-09-25T08:51:31.436Z,2.60
2022-09-25T08:53:59.022Z,2.80
2022-09-25T08:56:28.603Z,3.00
2022-09-25T08:59:13.720Z,2.97
2022-09-25T09:01:47.348Z,2.30
2022-09-25T09:04:32.636Z,2.40
2022-09-25T09:07:26.381Z,2.33
2022-09-25T09:09:57.917Z,2.73
2022-09-25T09:12:44.937Z,2.00
2022-09-25T09:15:42.296Z,2.30
2022-09-25T09:18:24.042Z,2.30
2022-09-25T09:20:59.128Z,2.20
2022-09-25T09:23:33.687Z,2.33
2022-09-25T09:26:03.582Z,1.97
2022-09-25T09:28:39.201Z,2.30
2022-09-25T09:31:17.054Z,2.00
2022-09-25T09:33:49.319Z,2.00
2022-09-25T09:36:30.542Z,1.90
2022-09-25T09:39:25.341Z,2.00
2022-09-25T09:41:58.181Z,2.10
2022-09-25T09:44:43.017Z,2.30
2022-09-25T09:47:25.533Z,1.80
2022-09-25T09:49:59.168Z,2.17
2022-09-25T09:52:34.063Z,1.90
2022-09-25T09:55:20.991Z,2.20
2022-09-25T09:57:52.207Z,2.40
2022-09-25T10:00:21.205Z,1.97
2022-09-25T10:02:54.078Z,2.10
2022-09-25T10:05:26.041Z,2.30
2022-09-25T10:07:53.242Z,2.87
2022-09-25T10:10:20.251Z,2.67
2022-09-25T10:12:50.958Z,2.90
2022-09-25T10:15:38.282Z,2.50
2022-09-25T10:18:06.516Z,3.17
2022-09-25T10:20:58.081Z,3.33
2022-09-25T10:23:47.777Z,2.63
2022-09-25T10:26:37.759Z,2.47
2022-09-25T10:29:25.087Z,2.50
2022-09-25T10:32:04.111Z,2.20
2022-09-25T10:34:31.854Z,2.23
2022-09-25T10:36:58.490Z,2.40
2022-09-25T10:39:44.685Z,2.30
2022-09-25T10:42:37.349Z,2.27
2022-09-25T10:45:21.961Z,2.97
2022-09-25T10:48:09.631Z,2.80
2022-09-25T10:50:38.624Z,3.10
2022-09-25T10:53:07.343Z,3.40
2022-09-25T10:55:42.503Z,4.00
2022-09-25T10:58:20.088Z,4.00
2022-09-25T11:00:47.551Z,4.33
2022-09-25T11:03:21.609Z,4.93
2022-09-25T11:05:55.094Z,5.03
2022-09-25T11:08:25.024Z,5.18
2022-09-25T11:10:57.739Z,4.20
2022-09-25T11:13:32.030Z,4.10
2022-09-25T11:16:03.222Z,3.30
2022-09-25T11:18:36.512Z,3.58
2022-09-25T11:21:05.151Z,3.53
2022-09-25T11:23:45.720Z,3.45
2022-09-25T11:26:15.033Z,3.50
2022-09-25T11:28:49.166Z,3.67
2022-09-25T11:31:30.145Z,3.15
2022-09-25T11:34:04.792Z,3.70
2022-09-25T11:36:49.170Z,3.70
2022-09-25T11:39:43.895Z,3.95
2022-09-25T11:42:18.894Z,4.13
2022-09-25T11:44:57.241Z,3.78
2022-09-25T11:48:10.845Z,4.30
2022-09-25T11:50:52.814Z,4.40
2022-09-25T11:53:33.434Z,4.40
2022-09-25T11:56:09.090Z,4.40
2022-09-25T11:59:13.407Z,4.27
2022-09-25T12:01:49.550Z,4.40
2022-09-25T12:04:25.230Z,4.00
2022-09-25T12:06:58.725Z,3.85
2022-09-25T12:10:04.915Z,4.00
2022-09-25T12:12:49.366Z,3.87
2022-09-25T12:15:20.815Z,4.25
2022-09-25T12:18:01.627Z,4.00
2022-09-25T12:20:38.742Z,3.67
2022-09-25T12:23:47.842Z,3.50
2022-09-25T12:26:33.444Z,3.67
2022-09-25T12:29:34.947Z,4.37
2022-09-25T12:32:27.063Z,3.90
2022-09-25T12:35:10.949Z,3.80
2022-09-25T12:37:49.624Z,4.07
2022-09-25T12:40:39.957Z,3.65
2022-09-25T12:43:13.338Z,3.50
2022-09-25T12:45:51.628Z,3.95
2022-09-25T12:48:43.996Z,3.83
2022-09-25T12:51:37.903Z,4.10
2022-09-25T12:54:32.393Z,4.10
2022-09-25T12:57:09.330Z,3.53
2022-09-25T13:00:10.241Z,4.47
2022-09-25T13:02:51.261Z,7.75
2022-09-25T13:05:39.739Z,8.17
2022-09-25T13:08:23.432Z,9.50
2022-09-25T13:11:03.876Z,10.17
2022-09-25T13:13:37.486Z,9.23
2022-09-25T13:16:05.137Z,8.80
2022-09-25T13:18:33.985Z,8.43
2022-09-25T13:21:23.523Z,8.40
2022-09-25T13:23:51.727Z,6.23
2022-09-25T13:26:24.285Z,4.67
2022-09-25T13:29:02.597Z,5.33
2022-09-25T13:31:34.401Z,3.97
2022-09-25T13:34:00.801Z,3.67
2022-09-25T13:36:50.312Z,3.47
2022-09-25T13:39:41.376Z,2.90
2022-09-25T13:42:28.594Z,2.60
2022-09-25T13:45:11.228Z,2.10
2022-09-25T13:47:38.338Z,1.50
2022-09-25T13:50:10.888Z,1.47
2022-09-25T13:52:40.274Z,1.40
2022-09-25T13:55:22.058Z,1.30
2022-09-25T13:57:58.235Z,1.43
2022-09-25T14:00:55.710Z,1.30
2022-09-25T14:03:30.222Z,1.70
2022-09-25T14:05:57.443Z,1.70
2022-09-25T14:08:25.835Z,1.90
2022-09-25T14:10:55.790Z,1.47
2022-09-25T14:13:25.231Z,1.43
2022-09-25T14:15:54.980Z,1.50
2022-09-25T14:18:26.595Z,1.90
2022-09-25T14:20:58.974Z,1.80
2022-09-25T14:23:29.801Z,2.03
2022-09-25T14:26:01.350Z,1.90
2022-09-25T14:28:31.065Z,1.60
2022-09-25T14:31:21.964Z,1.40
2022-09-25T14:33:53.538Z,2.00
2022-09-25T14:36:22.931Z,1.70
2022-09-25T14:39:05.586Z,1.87
2022-09-25T14:42:06.720Z,1.70
2022-09-25T14:45:00.561Z,2.00
2022-09-25T14:47:44.973Z,1.80
2022-09-25T14:50:25.152Z,2.00
2022-09-25T14:52:57.075Z,2.17
2022-09-25T14:55:27.442Z,2.20
2022-09-25T14:57:57.119Z,2.60
2022-09-25T15:00:24.648Z,2.20
2022-09-25T15:02:56.222Z,2.70
2022-09-25T15:05:25.864Z,2.43
2022-09-25T15:07:53.402Z,2.87
2022-09-25T15:10:40.239Z,2.63
2022-09-25T15:13:20.765Z,2.43
2022-09-25T15:16:10.168Z,3.17
2022-09-25T15:18:39.635Z,3.10
2022-09-25T15:21:29.074Z,2.93
2022-09-25T15:24:11.232Z,2.87
2022-09-25T15:26:48.726Z,2.80
2022-09-25T15:29:21.752Z,3.03
2022-09-25T15:31:53.574Z,3.30
2022-09-25T15:34:26.059Z,3.00
2022-09-25T15:36:53.214Z,2.50
2022-09-25T15:39:25.242Z,2.83
2022-09-25T15:41:52.064Z,2.80
2022-09-25T15:44:26.209Z,2.90
2022-09-25T15:46:58.635Z,2.70
2022-09-25T15:49:30.661Z,2.97
2022-09-25T15:52:01.641Z,2.53
2022-09-25T15:54:37.367Z,2.87
2022-09-25T15:57:13.191Z,3.03
2022-09-25T16:00:06.262Z,2.83
2022-09-25T16:02:58.225Z,2.50
2022-09-25T16:05:32.790Z,2.97
2022-09-25T16:08:29.317Z,2.90
2022-09-25T16:11:16.603Z,3.33
2022-09-25T16:13:49.083Z,3.10
2022-09-25T16:16:29.428Z,3.23
2022-09-25T16:18:57.810Z,3.03
2022-09-25T16:21:33.693Z,3.40
2022-09-25T16:24:05.686Z,2.90
2022-09-25T16:26:39.206Z,3.00
2022-09-25T16:29:13.977Z,3.30
2022-09-25T16:31:42.531Z,2.70
2022-09-25T16:34:19.532Z,2.90
2022-09-25T16:36:48.484Z,2.83
2022-09-25T16:39:26.486Z,2.73
2022-09-25T16:41:53.237Z,2.80
2022-09-25T16:44:36.965Z,2.57
2022-09-25T16:47:14.140Z,2.97
2022-09-25T16:49:40.634Z,2.63
2022-09-25T16:52:08.443Z,3.00
2022-09-25T16:54:37.366Z,2.90
2022-09-25T16:57:04.745Z,2.90
2022-09-25T16:59:31.208Z,2.90
2022-09-25T17:02:01.318Z,4.40
2022-09-25T17:04:30.449Z,3.77
2022-09-25T17:06:58.445Z,3.27
2022-09-25T17:09:28.250Z,3.50
2022-09-25T17:12:05.037Z,3.03
2022-09-25T17:14:31.633Z,2.70
2022-09-25T17:16:58.900Z,2.87
2022-09-25T17:19:25.575Z,3.17
2022-09-25T17:21:53.589Z,4.27
2022-09-25T17:24:23.696Z,3.53
2022-09-25T17:26:51.787Z,2.60
2022-09-25T17:29:19.198Z,2.80
2022-09-25T17:31:45.670Z,3.20
2022-09-25T17:34:24.318Z,3.30
2022-09-25T17:36:51.576Z,3.50
2022-09-25T17:39:18.008Z,3.07
2022-09-25T17:41:45.093Z,4.23
2022-09-25T17:44:16.694Z,4.30
2022-09-25T17:46:43.720Z,5.30
2022-09-25T17:49:11.291Z,5.87
2022-09-25T17:51:38.249Z,6.67
2022-09-25T17:54:05.903Z,7.40
2022-09-25T17:56:37.905Z,7.40
2022-09-25T17:59:05.472Z,7.60
2022-09-25T18:01:38.384Z,7.40
2022-09-25T18:04:19.978Z,7.67
2022-09-25T18:06:47.017Z,7.40
2022-09-25T18:09:13.617Z,7.77
2022-09-25T18:11:43.533Z,6.50
2022-09-25T18:14:12.217Z,6.23
2022-09-25T18:16:41.358Z,7.33
2022-09-25T18:19:33.334Z,6.40
2022-09-25T18:22:18.208Z,5.10
2022-09-25T18:24:45.963Z,4.73
2022-09-25T18:27:13.346Z,4.30
2022-09-25T18:29:40.349Z,4.07
2022-09-25T18:32:08.025Z,4.20
2022-09-25T18:34:34.452Z,3.77
2022-09-25T18:37:00.883Z,3.77
2022-09-25T18:39:27.342Z,3.43
2022-09-25T18:41:53.778Z,4.07
2022-09-25T18:44:23.324Z,3.43
2022-09-25T18:46:51.175Z,4.10
2022-09-25T18:49:19.168Z,3.37
2022-09-25T18:51:45.821Z,4.00
2022-09-25T18:54:14.330Z,4.23
2022-09-25T18:56:41.687Z,3.77
2022-09-25T18:59:08.311Z,4.33
2022-09-25T19:01:36.038Z,5.27
2022-09-25T19:04:03.410Z,7.50
2022-09-25T19:06:30.089Z,6.80
2022-09-25T19:08:57.757Z,7.47
2022-09-25T19:11:26.054Z,7.90
2022-09-25T19:13:52.879Z,7.50
2022-09-25T19:16:20.608Z,7.17
2022-09-25T19:18:47.424Z,8.17
2022-09-25T19:21:15.830Z,8.20
2022-09-25T19:23:43.559Z,7.83
2022-09-25T19:26:14.883Z,7.87
2022-09-25T19:28:41.811Z,7.77
2022-09-25T19:31:13.974Z,9.87
2022-09-25T19:33:40.462Z,9.50
2022-09-25T19:36:10.725Z,10.57
2022-09-25T19:38:38.597Z,13.37
2022-09-25T19:41:12.244Z,11.60
2022-09-25T19:43:39.792Z,9.30
2022-09-25T19:46:06.737Z,9.97
2022-09-25T19:48:33.543Z,8.30
2022-09-25T19:51:03.551Z,8.97
2022-09-25T19:53:30.061Z,8.17
2022-09-25T19:55:56.433Z,7.57
2022-09-25T19:58:23.666Z,7.20
2022-09-25T20:00:51.202Z,7.37
2022-09-25T20:03:18.198Z,6.20
2022-09-25T20:05:44.767Z,5.80
2022-09-25T20:08:11.474Z,5.13
2022-09-25T20:10:38.293Z,4.87
2022-09-25T20:13:06.076Z,4.90
2022-09-25T20:15:33.839Z,6.70
2022-09-25T20:18:00.532Z,7.53
2022-09-25T20:20:29.223Z,9.40
2022-09-25T20:22:57.531Z,8.97
2022-09-25T20:25:24.999Z,11.37
2022-09-25T20:27:52.233Z,9.70
2022-09-25T20:30:19.483Z,11.43
2022-09-25T20:32:47.725Z,10.87
2022-09-25T20:35:14.280Z,10.37
2022-09-25T20:37:40.653Z,9.93
2022-09-25T20:40:07.430Z,9.40
2022-09-25T20:42:33.934Z,9.13
2022-09-25T20:45:00.429Z,7.80
2022-09-25T20:47:33.351Z,7.63
2022-09-25T20:50:00.490Z,7.73
2022-09-25T20:52:27.738Z,6.60
2022-09-25T20:54:54.184Z,7.30
2022-09-25T20:57:20.600Z,7.27
2022-09-25T20:59:53.031Z,6.47
2022-09-25T21:02:19.522Z,6.87
2022-09-25T21:04:46.101Z,7.10
2022-09-25T21:07:16.735Z,7.17
2022-09-25T21:09:44.001Z,7.70
2022-09-25T21:12:10.427Z,7.47
2022-09-25T21:14:37.149Z,7.83
2022-09-25T21:17:03.857Z,7.53
2022-09-25T21:19:30.481Z,7.40
2022-09-25T21:21:56.871Z,10.37
2022-09-25T21:24:23.298Z,10.27
2022-09-25T21:26:50.494Z,8.00
2022-09-25T21:29:18.724Z,8.70
2022-09-25T21:31:49.678Z,7.57
2022-09-25T21:34:16.882Z,7.23
2022-09-25T21:36:45.169Z,6.70
2022-09-25T21:39:12.130Z,5.53
2022-09-25T21:41:39.188Z,5.90
2022-09-25T21:44:11.505Z,5.20
2022-09-25T21:46:37.920Z,6.33
2022-09-25T21:49:06.861Z,6.60
2022-09-25T21:51:38.607Z,6.40
2022-09-25T21:54:08.534Z,6.07
2022-09-25T21:56:35.354Z,4.67
2022-09-25T21:59:08.301Z,4.80
2022-09-25T22:01:37.263Z,4.70
2022-09-25T22:04:05.018Z,3.93
2022-09-25T22:06:37.090Z,4.33
2022-09-25T22:09:09.881Z,4.33
2022-09-25T22:11:37.549Z,4.23
2022-09-25T22:14:05.795Z,5.20
2022-09-25T22:16:35.020Z,9.10
2022-09-25T22:19:13.921Z,12.03
2022-09-25T22:21:42.585Z,8.47
2022-09-25T22:24:09.744Z,10.63
2022-09-25T22:26:38.332Z,11.03
2022-09-25T22:29:05.804Z,10.60
2022-09-25T22:31:33.825Z,10.97
2022-09-25T22:34:08.655Z,10.93
2022-09-25T22:36:36.166Z,10.07
2022-09-25T22:39:04.714Z,8.53
2022-09-25T22:41:31.977Z,8.80
2022-09-25T22:44:00.639Z,8.83
2022-09-25T22:46:27.585Z,8.67
2022-09-25T22:48:54.017Z,8.00
2022-09-25T22:51:23.003Z,9.17
2022-09-25T22:53:50.287Z,7.27
2022-09-25T22:56:21.046Z,6.80
2022-09-25T22:58:50.124Z,7.00
2022-09-25T23:01:50.728Z,7.03
2022-09-25T23:04:20.610Z,7.27
2022-09-25T23:06:48.781Z,6.90
2022-09-25T23:09:18.413Z,6.67
2022-09-25T23:11:45.655Z,5.83
2022-09-25T23:14:16.857Z,6.03
2022-09-25T23:16:44.793Z,5.27
2022-09-25T23:19:11.527Z,4.10
2022-09-25T23:21:37.935Z,3.80
2022-09-25T23:24:08.046Z,3.40
2022-09-25T23:26:34.523Z,5.60
2022-09-25T23:29:02.050Z,4.50
2022-09-25T23:31:30.474Z,4.37
2022-09-25T23:33:59.288Z,4.97
2022-09-25T23:36:26.655Z,4.67
2022-09-25T23:38:54.807Z,5.70
2022-09-25T23:41:32.674Z,5.70
2022-09-25T23:44:00.988Z,4.27
2022-09-25T23:46:31.131Z,5.17
2022-09-25T23:48:58.099Z,3.50
2022-09-25T23:51:26.148Z,3.20
2022-09-25T23:53:54.730Z,4.00
2022-09-25T23:56:28.867Z,4.33
2022-09-25T23:58:57.438Z,3.23
